createdAt,value
2018-09-05T00:05:39.417Z,13.00
2018-09-05T00:08:33.075Z,13.00
2018-09-05T00:11:04.841Z,12.90
2018-09-05T00:13:35.311Z,12.90
2018-09-05T00:16:05.288Z,12.90
2018-09-05T00:18:34.614Z,12.90
2018-09-05T00:21:29.580Z,12.80
2018-09-05T00:24:02.126Z,12.90
2018-09-05T00:26:31.565Z,12.80
2018-09-05T00:29:04.952Z,12.80
2018-09-05T00:31:34.370Z,12.70
2018-09-05T00:34:04.219Z,12.70
2018-09-05T00:36:34.505Z,12.70
2018-09-05T00:39:05.746Z,12.60
2018-09-05T00:41:35.312Z,12.60
2018-09-05T00:44:07.959Z,12.60
2018-09-05T00:46:48.256Z,12.50
2018-09-05T00:49:18.223Z,12.50
2018-09-05T00:51:46.858Z,12.40
2018-09-05T00:54:15.451Z,12.40
2018-09-05T00:56:44.134Z,12.40
2018-09-05T00:59:12.714Z,12.30
2018-09-05T01:01:43.043Z,12.30
2018-09-05T01:04:12.118Z,12.20
2018-09-05T01:06:41.827Z,12.20
2018-09-05T01:09:11.726Z,12.20
2018-09-05T01:12:17.595Z,12.20
2018-09-05T01:14:46.670Z,12.10
2018-09-05T01:17:15.312Z,12.10
2018-09-05T01:19:44.638Z,12.10
2018-09-05T01:22:14.134Z,12.10
2018-09-05T01:24:44.420Z,12.10
2018-09-05T01:27:30.548Z,12.00
2018-09-05T01:30:14.676Z,12.00
2018-09-05T01:32:44.582Z,12.00
2018-09-05T01:35:13.227Z,12.00
2018-09-05T01:37:42.059Z,12.00
2018-09-05T01:41:14.160Z,12.00
2018-09-05T01:43:44.724Z,11.90
2018-09-05T01:46:14.097Z,11.90
2018-09-05T01:48:42.848Z,11.90
2018-09-05T01:51:11.968Z,11.90
2018-09-05T01:53:41.115Z,11.80
2018-09-05T01:56:10.655Z,11.80
2018-09-05T01:58:40.202Z,11.80
2018-09-05T02:01:09.893Z,11.80
2018-09-05T02:03:39.662Z,11.80
2018-09-05T02:06:09.703Z,11.70
2018-09-05T02:08:41.975Z,11.70
2018-09-05T02:11:11.215Z,11.70
2018-09-05T02:13:40.849Z,11.70
2018-09-05T02:16:10.192Z,11.60
2018-09-05T02:18:39.778Z,11.70
2018-09-05T02:21:09.278Z,11.70
2018-09-05T02:23:38.833Z,11.60
2018-09-05T02:26:08.468Z,11.60
2018-09-05T02:28:38.257Z,11.50
2018-09-05T02:31:16.059Z,11.60
2018-09-05T02:33:45.481Z,11.60
2018-09-05T02:36:15.261Z,11.50
2018-09-05T02:38:45.042Z,11.50
2018-09-05T02:41:14.776Z,11.50
2018-09-05T02:43:48.806Z,11.50
2018-09-05T02:46:17.404Z,11.50
2018-09-05T02:48:46.029Z,11.40
2018-09-05T02:51:15.490Z,11.40
2018-09-05T02:53:44.154Z,11.40
2018-09-05T02:56:12.891Z,11.40
2018-09-05T02:58:41.942Z,11.30
2018-09-05T03:01:11.277Z,11.30
2018-09-05T03:03:40.645Z,11.30
2018-09-05T03:06:10.187Z,11.40
2018-09-05T03:08:39.486Z,11.50
2018-09-05T03:11:08.849Z,11.50
2018-09-05T03:13:46.465Z,11.60
2018-09-05T03:16:16.135Z,11.70
2018-09-05T03:18:44.847Z,11.90
2018-09-05T03:21:13.436Z,12.00
2018-09-05T03:23:42.463Z,12.20
2018-09-05T03:27:05.654Z,12.40
2018-09-05T03:30:03.416Z,12.50
2018-09-05T03:32:32.783Z,12.70
2018-09-05T03:35:02.527Z,12.80
2018-09-05T03:37:43.528Z,12.90
2018-09-05T03:40:13.443Z,13.00
2018-09-05T03:42:42.423Z,13.10
2018-09-05T03:45:11.777Z,13.20
2018-09-05T03:47:41.068Z,13.20
2018-09-05T03:50:10.856Z,13.30
2018-09-05T03:52:40.213Z,13.40
2018-09-05T03:55:09.594Z,13.50
2018-09-05T03:57:39.222Z,13.60
2018-09-05T04:00:09.113Z,13.70
2018-09-05T04:02:38.356Z,13.80
2018-09-05T04:05:08.044Z,13.90
2018-09-05T04:07:39.198Z,13.90
2018-09-05T04:10:08.570Z,14.00
2018-09-05T04:12:40.789Z,14.00
2018-09-05T04:15:11.066Z,14.10
2018-09-05T04:17:40.533Z,14.20
2018-09-05T04:20:10.645Z,14.20
2018-09-05T04:22:40.036Z,14.20
2018-09-05T04:25:09.285Z,14.30
2018-09-05T04:27:38.909Z,14.30
2018-09-05T04:30:08.693Z,14.30
2018-09-05T04:33:02.725Z,14.40
2018-09-05T04:35:32.979Z,14.40
2018-09-05T04:38:07.153Z,14.40
2018-09-05T04:44:02.465Z,14.50
2018-09-05T04:46:33.218Z,14.50
2018-09-05T04:49:07.338Z,14.50
2018-09-05T04:51:36.860Z,14.50
2018-09-05T04:54:07.515Z,14.60
2018-09-05T04:56:36.977Z,14.60
2018-09-05T04:59:05.891Z,14.60
2018-09-05T05:01:35.405Z,14.60
2018-09-05T05:07:17.875Z,14.70
2018-09-05T05:09:46.872Z,14.80
2018-09-05T05:12:19.677Z,14.80
2018-09-05T05:15:11.599Z,14.80
2018-09-05T05:17:41.356Z,14.90
2018-09-05T05:20:15.478Z,14.90
2018-09-05T05:23:17.458Z,14.90
2018-09-05T05:25:47.190Z,15.00
2018-09-05T05:28:15.791Z,15.00
2018-09-05T05:30:45.323Z,15.10
2018-09-05T05:33:14.073Z,15.10
2018-09-05T05:35:43.625Z,15.10
2018-09-05T05:38:40.753Z,15.10
2018-09-05T05:41:10.294Z,15.20
2018-09-05T05:43:39.520Z,15.20
2018-09-05T05:46:09.389Z,15.20
2018-09-05T05:48:39.851Z,15.30
2018-09-05T05:51:11.031Z,15.30
2018-09-05T05:53:40.806Z,15.30
2018-09-05T05:56:49.660Z,15.40
2018-09-05T05:59:18.221Z,15.40
2018-09-05T06:01:47.612Z,15.50
2018-09-05T06:04:16.959Z,15.50
2018-09-05T06:06:46.659Z,15.50
2018-09-05T06:09:15.782Z,15.60
2018-09-05T06:11:46.016Z,15.60
2018-09-05T06:14:15.395Z,15.60
2018-09-05T06:16:44.143Z,15.70
2018-09-05T06:19:15.427Z,15.70
2018-09-05T06:21:44.582Z,15.80
2018-09-05T06:24:40.014Z,15.80
2018-09-05T06:27:09.389Z,15.80
2018-09-05T06:32:34.496Z,15.90
2018-09-05T06:35:06.432Z,16.00
2018-09-05T06:38:07.420Z,16.10
2018-09-05T06:40:41.081Z,16.10
2018-09-05T06:43:17.661Z,16.10
2018-09-05T06:45:46.176Z,16.20
2018-09-05T06:48:38.968Z,16.20
2018-09-05T06:51:08.986Z,16.20
2018-09-05T06:53:39.916Z,16.20
2018-09-05T06:56:09.670Z,16.30
2018-09-05T06:59:51.138Z,16.30
2018-09-05T07:02:19.785Z,16.40
2018-09-05T07:04:49.074Z,16.50
2018-09-05T07:07:17.725Z,16.50
2018-09-05T07:10:09.212Z,16.50
2018-09-05T07:12:38.681Z,16.60
2018-09-05T07:15:07.939Z,16.60
2018-09-05T07:17:37.423Z,16.60
2018-09-05T07:20:06.752Z,16.60
2018-09-05T07:22:36.108Z,16.60
2018-09-05T07:25:32.619Z,16.70
2018-09-05T07:28:03.821Z,16.70
2018-09-05T07:30:33.825Z,16.70
2018-09-05T07:33:03.233Z,16.80
2018-09-05T07:35:33.244Z,16.80
2018-09-05T07:38:02.797Z,16.90
2018-09-05T07:40:33.501Z,17.00
2018-09-05T07:43:03.417Z,17.00
2018-09-05T07:45:33.961Z,17.10
2018-09-05T07:48:03.828Z,17.20
2018-09-05T07:50:33.684Z,17.20
2018-09-05T07:53:03.581Z,17.30
2018-09-05T07:55:45.502Z,17.30
2018-09-05T07:58:14.343Z,17.40
2018-09-05T08:00:43.443Z,17.40
2018-09-05T08:03:12.720Z,17.40
2018-09-05T08:05:41.939Z,17.40
2018-09-05T08:08:11.346Z,17.60
2018-09-05T08:10:40.813Z,17.70
2018-09-05T08:13:11.094Z,17.80
2018-09-05T08:15:40.598Z,18.10
2018-09-05T08:18:09.903Z,18.30
2018-09-05T08:20:39.388Z,18.60
2018-09-05T08:23:08.788Z,18.70
2018-09-05T08:25:38.213Z,18.80
2018-09-05T08:28:07.635Z,18.90
2018-09-05T08:30:36.896Z,19.00
2018-09-05T08:33:06.553Z,19.10
2018-09-05T08:35:36.482Z,19.20
2018-09-05T08:38:05.617Z,19.30
2018-09-05T08:40:36.287Z,19.40
2018-09-05T08:43:05.893Z,19.40
2018-09-05T08:45:35.406Z,19.50
2018-09-05T08:48:04.442Z,19.50
2018-09-05T08:50:33.978Z,19.60
2018-09-05T08:53:03.890Z,19.80
2018-09-05T08:55:35.130Z,19.90
2018-09-05T08:58:04.523Z,20.00
2018-09-05T09:00:34.208Z,20.00
2018-09-05T09:03:04.466Z,20.60
2018-09-05T09:05:34.072Z,21.20
2018-09-05T09:08:04.404Z,21.60
2018-09-05T09:10:36.766Z,21.90
2018-09-05T09:13:06.330Z,22.10
2018-09-05T09:15:36.473Z,22.20
2018-09-05T09:18:11.527Z,22.20
2018-09-05T09:20:41.195Z,22.10
2018-09-05T09:23:10.742Z,22.00
2018-09-05T09:25:39.867Z,22.00
2018-09-05T09:28:09.161Z,22.00
2018-09-05T09:30:39.413Z,21.90
2018-09-05T09:33:09.950Z,21.90
2018-09-05T09:35:39.315Z,21.80
2018-09-05T09:38:13.601Z,21.70
2018-09-05T09:40:43.018Z,21.50
2018-09-05T09:43:12.280Z,21.50
2018-09-05T09:45:41.631Z,21.40
2018-09-05T09:48:33.205Z,21.50
2018-09-05T09:51:03.658Z,21.50
2018-09-05T09:53:40.027Z,21.60
2018-09-05T09:56:09.371Z,21.60
2018-09-05T09:58:39.003Z,21.50
2018-09-05T10:01:49.251Z,21.50
2018-09-05T10:07:09.510Z,21.60
2018-09-05T10:09:44.839Z,21.60
2018-09-05T10:12:19.060Z,21.70
2018-09-05T10:14:58.396Z,21.90
2018-09-05T10:17:43.988Z,22.00
2018-09-05T10:20:17.979Z,22.20
2018-09-05T10:22:46.600Z,22.40
2018-09-05T10:25:35.853Z,22.40
2018-09-05T10:28:04.933Z,22.40
2018-09-05T10:30:34.910Z,22.40
2018-09-05T10:33:06.102Z,22.50
2018-09-05T10:35:35.447Z,22.60
2018-09-05T10:38:06.780Z,22.70
2018-09-05T10:40:37.421Z,22.70
2018-09-05T10:43:06.745Z,22.70
2018-09-05T10:45:36.169Z,22.60
2018-09-05T10:48:20.676Z,22.50
2018-09-05T10:50:49.236Z,22.50
2018-09-05T10:53:17.815Z,22.50
2018-09-05T10:55:46.672Z,22.50
2018-09-05T10:58:15.365Z,22.50
2018-09-05T11:00:45.264Z,22.40
2018-09-05T11:03:15.518Z,22.30
2018-09-05T11:05:45.368Z,22.20
2018-09-05T11:08:17.384Z,22.20
2018-09-05T11:11:15.967Z,22.10
2018-09-05T11:13:45.262Z,22.00
2018-09-05T11:16:18.067Z,22.00
2018-09-05T11:18:47.216Z,22.00
2018-09-05T11:21:16.412Z,22.00
2018-09-05T11:23:45.984Z,22.00
2018-09-05T11:26:15.286Z,22.00
2018-09-05T11:28:55.650Z,22.00
2018-09-05T11:31:24.928Z,22.00
2018-09-05T11:33:54.262Z,22.00
2018-09-05T11:36:53.547Z,21.90
2018-09-05T11:39:44.647Z,21.90
2018-09-05T11:42:25.272Z,21.90
2018-09-05T11:44:56.261Z,21.90
2018-09-05T11:47:25.180Z,21.90
2018-09-05T11:53:17.053Z,22.00
2018-09-05T11:55:46.885Z,22.10
2018-09-05T11:58:19.373Z,22.10
2018-09-05T12:00:48.112Z,22.20
2018-09-05T12:03:16.779Z,22.30
2018-09-05T12:05:46.026Z,22.50
2018-09-05T12:08:14.950Z,22.70
2018-09-05T12:10:44.075Z,22.80
2018-09-05T12:13:13.300Z,22.80
2018-09-05T12:15:42.521Z,22.80
2018-09-05T12:18:11.961Z,22.90
2018-09-05T12:20:40.979Z,22.90
2018-09-05T12:23:10.221Z,22.90
2018-09-05T12:25:39.930Z,23.00
2018-09-05T12:28:09.269Z,23.00
2018-09-05T12:30:38.503Z,23.00
2018-09-05T12:33:08.047Z,23.00
2018-09-05T12:35:37.194Z,23.10
2018-09-05T12:38:06.849Z,23.20
2018-09-05T12:40:36.738Z,23.50
2018-09-05T12:43:06.090Z,23.70
2018-09-05T12:45:35.280Z,23.90
2018-09-05T12:48:05.937Z,24.10
2018-09-05T12:50:36.349Z,24.20
2018-09-05T12:53:11.299Z,24.30
2018-09-05T12:55:40.712Z,24.20
2018-09-05T12:58:10.146Z,24.10
2018-09-05T13:00:39.632Z,23.90
2018-09-05T13:03:09.105Z,23.70
2018-09-05T13:05:38.586Z,23.50
2018-09-05T13:08:07.829Z,23.40
2018-09-05T13:10:37.210Z,23.30
2018-09-05T13:13:13.043Z,23.30
2018-09-05T13:15:42.386Z,23.30
2018-09-05T13:18:11.583Z,23.30
2018-09-05T13:20:40.994Z,23.40
2018-09-05T13:23:10.265Z,23.50
2018-09-05T13:25:40.914Z,23.60
2018-09-05T13:28:13.253Z,23.70
2018-09-05T13:30:43.219Z,23.80
2018-09-05T13:36:06.265Z,24.20
2018-09-05T13:38:36.468Z,24.40
2018-09-05T13:41:06.207Z,24.60
2018-09-05T13:43:39.430Z,24.70
2018-09-05T13:46:09.054Z,24.70
2018-09-05T13:48:38.561Z,24.50
2018-09-05T13:51:08.141Z,24.40
2018-09-05T13:53:37.312Z,24.30
2018-09-05T13:56:06.898Z,24.20
2018-09-05T13:58:36.490Z,24.00
2018-09-05T14:01:07.244Z,24.00
2018-09-05T14:03:36.785Z,23.80
2018-09-05T14:06:07.060Z,23.70
2018-09-05T14:08:36.746Z,23.60
2018-09-05T14:11:07.017Z,23.50
2018-09-05T14:13:36.765Z,23.50
2018-09-05T14:16:06.946Z,23.50
2018-09-05T14:18:36.525Z,23.50
2018-09-05T14:21:06.599Z,23.50
2018-09-05T14:23:37.084Z,23.60
2018-09-05T14:26:06.731Z,23.50
2018-09-05T14:28:37.715Z,23.50
2018-09-05T14:31:07.835Z,23.50
2018-09-05T14:33:49.730Z,23.50
2018-09-05T14:36:19.009Z,23.50
2018-09-05T14:38:49.006Z,23.50
2018-09-05T14:41:18.141Z,23.50
2018-09-05T14:43:47.843Z,23.60
2018-09-05T14:46:17.569Z,23.70
2018-09-05T14:48:47.536Z,23.90
2018-09-05T14:51:17.048Z,24.10
2018-09-05T14:53:46.869Z,24.20
2018-09-05T14:56:17.846Z,24.40
2018-09-05T14:58:47.683Z,24.50
2018-09-05T15:01:17.356Z,24.70
2018-09-05T15:03:52.802Z,24.80
2018-09-05T15:06:21.423Z,24.90
2018-09-05T15:08:52.133Z,24.90
2018-09-05T15:11:20.836Z,24.90
2018-09-05T15:13:49.831Z,25.00
2018-09-05T15:16:37.799Z,24.90
2018-09-05T15:19:47.596Z,24.80
2018-09-05T15:22:17.905Z,24.80
2018-09-05T15:24:47.380Z,24.80
2018-09-05T15:27:17.891Z,24.70
2018-09-05T15:29:47.546Z,24.60
2018-09-05T15:32:25.874Z,24.60
2018-09-05T15:35:04.988Z,24.50
2018-09-05T15:37:45.220Z,24.50
2018-09-05T15:40:15.617Z,24.50
2018-09-05T15:42:45.261Z,24.40
2018-09-05T15:45:14.802Z,24.20
2018-09-05T15:47:44.771Z,24.20
2018-09-05T15:50:14.628Z,24.00
2018-09-05T15:52:44.609Z,23.90
2018-09-05T15:55:15.198Z,23.80
2018-09-05T15:57:45.817Z,23.70
2018-09-05T16:00:15.604Z,23.60
2018-09-05T16:02:45.279Z,23.50
2018-09-05T16:05:14.743Z,23.40
2018-09-05T16:07:45.363Z,23.40
2018-09-05T16:10:15.376Z,23.20
2018-09-05T16:12:44.945Z,23.20
2018-09-05T16:15:18.577Z,23.10
2018-09-05T16:17:48.394Z,23.10
2018-09-05T16:20:35.877Z,23.00
2018-09-05T16:23:08.908Z,22.90
2018-09-05T16:25:38.834Z,22.90
2018-09-05T16:28:15.965Z,22.80
2018-09-05T16:30:45.549Z,22.70
2018-09-05T16:33:15.162Z,22.70
2018-09-05T16:35:43.732Z,22.60
2018-09-05T16:38:13.583Z,22.50
2018-09-05T16:40:43.692Z,22.40
2018-09-05T16:43:13.021Z,22.30
2018-09-05T16:45:42.790Z,22.20
2018-09-05T16:48:12.491Z,22.00
2018-09-05T16:50:42.568Z,21.80
2018-09-05T16:53:15.098Z,21.60
2018-09-05T16:55:44.533Z,21.50
2018-09-05T16:58:19.062Z,21.30
2018-09-05T17:00:48.508Z,21.20
2018-09-05T17:03:18.605Z,21.00
2018-09-05T17:06:15.026Z,20.90
2018-09-05T17:08:45.143Z,20.70
2018-09-05T17:11:14.843Z,20.50
2018-09-05T17:13:44.711Z,20.30
2018-09-05T17:16:14.498Z,20.20
2018-09-05T17:19:07.246Z,20.10
2018-09-05T17:21:38.365Z,19.90
2018-09-05T17:24:08.792Z,19.80
2018-09-05T17:26:38.828Z,19.60
2018-09-05T17:29:09.053Z,19.50
2018-09-05T17:31:38.664Z,19.30
2018-09-05T17:34:08.829Z,19.20
2018-09-05T17:36:38.398Z,19.10
2018-09-05T17:39:10.838Z,18.90
2018-09-05T17:41:43.331Z,18.80
2018-09-05T17:44:13.254Z,18.60
2018-09-05T17:46:43.598Z,18.50
2018-09-05T17:49:13.343Z,18.30
2018-09-05T17:51:43.270Z,18.20
2018-09-05T17:54:13.048Z,18.10
2018-09-05T17:56:42.945Z,17.90
2018-09-05T17:59:12.496Z,17.80
2018-09-05T18:01:42.644Z,17.70
2018-09-05T18:04:13.939Z,17.50
2018-09-05T18:06:43.720Z,17.50
2018-09-05T18:09:14.244Z,17.30
2018-09-05T18:11:45.087Z,17.20
2018-09-05T18:14:15.794Z,17.20
2018-09-05T18:16:46.621Z,17.00
2018-09-05T18:19:16.777Z,16.90
2018-09-05T18:21:47.056Z,16.80
2018-09-05T18:24:18.053Z,16.70
2018-09-05T18:26:47.404Z,16.70
2018-09-05T18:29:18.479Z,16.60
2018-09-05T18:31:48.463Z,16.50
2018-09-05T18:34:20.087Z,16.40
2018-09-05T18:36:50.225Z,16.30
2018-09-05T18:39:21.636Z,16.20
2018-09-05T18:41:50.615Z,16.10
2018-09-05T18:44:20.192Z,16.10
2018-09-05T18:46:49.470Z,16.00
2018-09-05T18:49:19.267Z,15.90
2018-09-05T18:51:49.313Z,15.80
2018-09-05T18:54:18.885Z,15.80
2018-09-05T18:56:48.563Z,15.70
2018-09-05T18:59:17.187Z,15.60
2018-09-05T19:01:47.322Z,15.50
2018-09-05T19:04:17.433Z,15.40
2018-09-05T19:06:47.864Z,15.40
2018-09-05T19:09:17.279Z,15.30
2018-09-05T19:11:48.005Z,15.30
2018-09-05T19:14:17.427Z,15.20
2018-09-05T19:16:47.340Z,15.20
2018-09-05T19:19:17.216Z,15.10
2018-09-05T19:21:47.481Z,15.10
2018-09-05T19:24:17.273Z,15.00
2018-09-05T19:26:47.351Z,15.00
2018-09-05T19:29:16.952Z,14.90
2018-09-05T19:31:46.898Z,14.80
2018-09-05T19:34:17.494Z,14.80
2018-09-05T19:36:47.141Z,14.80
2018-09-05T19:39:17.038Z,14.70
2018-09-05T19:41:48.015Z,14.70
2018-09-05T19:44:18.079Z,14.60
2018-09-05T19:46:48.571Z,14.60
2018-09-05T19:49:18.330Z,14.60
2018-09-05T19:51:48.079Z,14.60
2018-09-05T19:54:17.796Z,14.50
2018-09-05T19:56:48.096Z,14.50
2018-09-05T19:59:17.821Z,14.50
2018-09-05T20:01:47.975Z,14.50
2018-09-05T20:04:17.757Z,14.50
2018-09-05T20:06:48.050Z,14.50
2018-09-05T20:09:18.767Z,14.50
2018-09-05T20:11:48.295Z,14.50
2018-09-05T20:14:17.813Z,14.50
2018-09-05T20:16:47.480Z,14.60
2018-09-05T20:19:17.112Z,14.60
2018-09-05T20:21:48.476Z,14.60
2018-09-05T20:24:18.156Z,14.60
2018-09-05T20:26:48.252Z,14.60
2018-09-05T20:29:17.779Z,14.70
2018-09-05T20:31:47.850Z,14.70
2018-09-05T20:34:17.907Z,14.70
2018-09-05T20:36:48.061Z,14.70
2018-09-05T20:39:17.502Z,14.80
2018-09-05T20:41:47.150Z,14.90
2018-09-05T20:44:17.215Z,14.90
2018-09-05T20:46:47.121Z,14.90
2018-09-05T20:49:16.662Z,15.00
2018-09-05T20:51:48.516Z,15.00
2018-09-05T20:54:18.479Z,15.00
2018-09-05T20:56:48.212Z,15.00
2018-09-05T20:59:16.849Z,15.00
2018-09-05T21:01:46.949Z,15.00
2018-09-05T21:04:16.431Z,15.00
2018-09-05T21:06:46.267Z,15.00
2018-09-05T21:09:15.943Z,15.10
2018-09-05T21:11:45.819Z,15.10
2018-09-05T21:14:15.311Z,15.10
2018-09-05T21:16:45.146Z,15.00
2018-09-05T21:19:14.870Z,15.00
2018-09-05T21:21:45.623Z,14.90
2018-09-05T21:24:15.219Z,14.90
2018-09-05T21:27:09.072Z,14.90
2018-09-05T21:29:40.529Z,14.90
2018-09-05T21:32:11.104Z,14.80
2018-09-05T21:34:53.606Z,14.70
2018-09-05T21:37:22.710Z,14.70
2018-09-05T21:39:51.722Z,14.60
2018-09-05T21:42:21.156Z,14.60
2018-09-05T21:44:51.086Z,14.50
2018-09-05T21:47:20.385Z,14.50
2018-09-05T21:49:49.562Z,14.50
2018-09-05T21:52:19.579Z,14.40
2018-09-05T21:54:49.285Z,14.40
2018-09-05T21:57:18.665Z,14.40
2018-09-05T21:59:49.143Z,14.40
2018-09-05T22:02:19.750Z,14.40
2018-09-05T22:04:49.488Z,14.40
2018-09-05T22:07:19.526Z,14.40
2018-09-05T22:09:49.135Z,14.40
2018-09-05T22:12:17.683Z,14.40
2018-09-05T22:14:47.222Z,14.30
2018-09-05T22:17:16.974Z,14.40
2018-09-05T22:19:46.387Z,14.40
2018-09-05T22:22:16.049Z,14.40
2018-09-05T22:24:46.535Z,14.40
2018-09-05T22:27:16.498Z,14.40
2018-09-05T22:29:47.149Z,14.40
2018-09-05T22:32:17.305Z,14.40
2018-09-05T22:34:47.124Z,14.50
2018-09-05T22:37:17.527Z,14.60
2018-09-05T22:39:47.097Z,14.70
2018-09-05T22:42:16.732Z,14.80
2018-09-05T22:44:59.629Z,14.80
2018-09-05T22:47:43.017Z,14.80
2018-09-05T22:53:02.544Z,14.90
2018-09-05T22:56:22.215Z,14.90
2018-09-05T22:59:05.081Z,14.80
2018-09-05T23:07:17.625Z,14.80
2018-09-05T23:09:59.397Z,15.00
2018-09-05T23:12:46.945Z,15.00
2018-09-05T23:15:26.919Z,15.10
2018-09-05T23:19:09.992Z,15.10
2018-09-05T23:21:40.632Z,15.20
2018-09-05T23:24:11.319Z,15.20
2018-09-05T23:26:41.764Z,15.30
2018-09-05T23:29:17.629Z,15.30
2018-09-05T23:31:47.366Z,15.30
2018-09-05T23:34:16.757Z,15.30
2018-09-05T23:37:09.633Z,15.30
2018-09-05T23:39:41.053Z,15.30
2018-09-05T23:42:10.947Z,15.20
2018-09-05T23:44:41.215Z,15.10
2018-09-05T23:47:37.633Z,15.10
2018-09-05T23:50:45.069Z,15.10
2018-09-05T23:53:14.652Z,15.10
2018-09-05T23:55:44.466Z,15.00
2018-09-05T23:58:14.175Z,14.90
